createdAt,value
2016-07-21T00:00:37.815Z,0
2016-07-21T00:01:37.814Z,0
2016-07-21T00:02:37.830Z,0
2016-07-21T00:03:37.123Z,0
2016-07-21T00:04:38.942Z,0
2016-07-21T00:05:37.140Z,0
2016-07-21T00:06:38.658Z,0
2016-07-21T00:07:37.868Z,0
2016-07-21T00:08:37.877Z,0
2016-07-21T00:09:37.877Z,0
2016-07-21T00:10:37.939Z,0
2016-07-21T00:11:37.237Z,0
2016-07-21T00:12:37.902Z,0
2016-07-21T00:13:37.913Z,0
2016-07-21T00:14:37.920Z,0
2016-07-21T00:15:37.230Z,0
2016-07-21T00:16:37.932Z,0
2016-07-21T00:17:39.103Z,0
2016-07-21T00:18:37.949Z,0
2016-07-21T00:19:36.553Z,0
2016-07-21T00:20:37.259Z,0
2016-07-21T00:21:37.271Z,0
2016-07-21T00:22:37.281Z,0
2016-07-21T00:23:37.996Z,0
2016-07-21T00:24:38.711Z,0
2016-07-21T00:25:38.719Z,0
2016-07-21T00:26:38.973Z,0
2016-07-21T00:27:38.023Z,0
2016-07-21T00:28:37.331Z,0
2016-07-21T00:29:37.337Z,0
2016-07-21T00:30:38.053Z,0
2016-07-21T00:31:37.351Z,0
2016-07-21T00:32:37.370Z,0
2016-07-21T00:33:37.362Z,0
2016-07-21T00:34:38.790Z,0
2016-07-21T00:35:38.183Z,0
2016-07-21T00:36:38.801Z,0
2016-07-21T00:37:38.506Z,0
2016-07-21T00:38:38.819Z,0
2016-07-21T00:39:39.719Z,0
2016-07-21T00:40:38.131Z,0
2016-07-21T00:41:38.852Z,0
2016-07-21T00:42:38.146Z,0
2016-07-21T00:43:37.444Z,0
2016-07-21T00:44:36.747Z,0
2016-07-21T00:45:38.172Z,0
2016-07-21T00:46:38.473Z,0
2016-07-21T00:47:38.897Z,0
2016-07-21T00:48:38.337Z,0
2016-07-21T00:49:37.488Z,0
2016-07-21T00:50:38.210Z,0
2016-07-21T00:51:37.504Z,0
2016-07-21T00:52:38.219Z,0
2016-07-21T00:53:38.943Z,0
2016-07-21T00:54:38.238Z,0
2016-07-21T00:55:38.251Z,0
2016-07-21T00:56:37.544Z,0
2016-07-21T00:57:38.741Z,0
2016-07-21T00:58:37.562Z,0
2016-07-21T00:59:36.873Z,0
2016-07-21T01:00:38.992Z,0
2016-07-21T01:01:38.996Z,0
2016-07-21T01:02:36.888Z,0
2016-07-21T01:03:38.319Z,0
2016-07-21T01:04:38.312Z,0
2016-07-21T01:05:39.027Z,0
2016-07-21T01:06:39.038Z,0
2016-07-21T01:07:37.628Z,0
2016-07-21T01:08:38.343Z,0
2016-07-21T01:09:39.063Z,0
2016-07-21T01:10:40.166Z,0
2016-07-21T01:11:38.370Z,0
2016-07-21T01:12:38.331Z,0
2016-07-21T01:13:37.730Z,0
2016-07-21T01:14:39.107Z,0
2016-07-21T01:15:39.104Z,0
2016-07-21T01:16:38.410Z,0
2016-07-21T01:17:37.726Z,0
2016-07-21T01:18:37.015Z,0
2016-07-21T01:19:37.778Z,0
2016-07-21T01:20:39.148Z,0
2016-07-21T01:21:39.758Z,0
2016-07-21T01:22:37.751Z,0
2016-07-21T01:23:39.322Z,0
2016-07-21T01:24:38.474Z,0
2016-07-21T01:25:37.784Z,0
2016-07-21T01:26:38.492Z,0
2016-07-21T01:27:39.209Z,0
2016-07-21T01:28:38.505Z,0
2016-07-21T01:29:38.517Z,0
2016-07-21T01:30:39.232Z,0
2016-07-21T01:31:39.238Z,0
2016-07-21T01:32:37.381Z,0
2016-07-21T01:33:38.551Z,0
2016-07-21T01:34:37.143Z,0
2016-07-21T01:35:39.270Z,0
2016-07-21T01:36:38.571Z,0
2016-07-21T01:37:39.285Z,0
2016-07-21T01:38:37.877Z,0
2016-07-21T01:39:39.308Z,0
2016-07-21T01:40:39.314Z,0
2016-07-21T01:41:38.876Z,0
2016-07-21T01:42:38.621Z,0
2016-07-21T01:43:38.628Z,0
2016-07-21T01:44:39.344Z,0
2016-07-21T01:45:40.451Z,0
2016-07-21T01:46:38.652Z,0
2016-07-21T01:47:37.973Z,0
2016-07-21T01:48:38.669Z,0
2016-07-21T01:49:39.381Z,0
2016-07-21T01:50:37.997Z,0
2016-07-21T01:51:38.692Z,0
2016-07-21T01:52:39.494Z,0
2016-07-21T01:53:38.707Z,0
2016-07-21T01:54:39.218Z,0
2016-07-21T01:55:37.305Z,0
2016-07-21T01:56:38.175Z,0
2016-07-21T01:57:39.450Z,0
2016-07-21T01:58:38.748Z,0
2016-07-21T01:59:38.751Z,0
2016-07-21T02:00:38.764Z,0
2016-07-21T02:01:37.354Z,0
2016-07-21T02:02:38.778Z,0
2016-07-21T02:03:37.373Z,0
2016-07-21T02:04:38.792Z,0
2016-07-21T02:05:39.399Z,0
2016-07-21T02:06:38.804Z,0
2016-07-21T02:07:40.500Z,0
2016-07-21T02:08:38.823Z,0
2016-07-21T02:09:37.417Z,0
2016-07-21T02:10:38.134Z,0
2016-07-21T02:11:38.151Z,0
2016-07-21T02:12:38.956Z,0
2016-07-21T02:13:38.206Z,0
2016-07-21T02:14:37.454Z,0
2016-07-21T02:15:38.928Z,0
2016-07-21T02:16:39.885Z,0
2016-07-21T02:17:38.892Z,0
2016-07-21T02:18:39.607Z,0
2016-07-21T02:19:38.908Z,0
2016-07-21T02:20:39.619Z,0
2016-07-21T02:21:38.213Z,0
2016-07-21T02:22:39.643Z,0
2016-07-21T02:23:38.942Z,0
2016-07-21T02:24:38.945Z,0
2016-07-21T02:25:38.960Z,0
2016-07-21T02:26:38.254Z,0
2016-07-21T02:27:37.559Z,0
2016-07-21T02:28:39.692Z,0
2016-07-21T02:29:39.340Z,0
2016-07-21T02:30:38.285Z,0
2016-07-21T02:31:39.006Z,0
2016-07-21T02:32:38.304Z,0
2016-07-21T02:33:37.620Z,0
2016-07-21T02:34:39.029Z,0
2016-07-21T02:35:39.033Z,0
2016-07-21T02:36:38.333Z,0
2016-07-21T02:37:39.059Z,0
2016-07-21T02:38:38.352Z,0
2016-07-21T02:39:39.067Z,0
2016-07-21T02:40:39.678Z,0
2016-07-21T02:41:39.790Z,0
2016-07-21T02:42:38.385Z,0
2016-07-21T02:43:39.101Z,0
2016-07-21T02:44:39.104Z,0
2016-07-21T02:45:39.821Z,0
2016-07-21T02:46:39.121Z,0
2016-07-21T02:47:39.173Z,0
2016-07-21T02:48:39.139Z,0
2016-07-21T02:49:38.435Z,0
2016-07-21T02:50:39.155Z,0
2016-07-21T02:51:38.454Z,0
2016-07-21T02:52:39.181Z,0
2016-07-21T02:53:39.172Z,0
2016-07-21T02:54:38.475Z,0
2016-07-21T02:55:39.898Z,0
2016-07-21T02:56:37.785Z,0
2016-07-21T02:57:39.208Z,0
2016-07-21T02:58:39.516Z,0
2016-07-21T02:59:39.931Z,0
2016-07-21T03:00:39.230Z,0
2016-07-21T03:01:39.244Z,0
2016-07-21T03:02:40.351Z,0
2016-07-21T03:03:39.258Z,0
2016-07-21T03:04:38.555Z,0
2016-07-21T03:05:38.563Z,0
2016-07-21T03:06:39.991Z,0
2016-07-21T03:07:38.583Z,0
2016-07-21T03:08:40.004Z,0
2016-07-21T03:09:40.577Z,0
2016-07-21T03:10:39.316Z,0
2016-07-21T03:11:39.554Z,0
2016-07-21T03:12:38.667Z,0
2016-07-21T03:13:40.087Z,4
2016-07-21T03:14:40.049Z,4
2016-07-21T03:15:38.647Z,4
2016-07-21T03:16:39.362Z,0
2016-07-21T03:17:37.953Z,0
2016-07-21T03:18:40.081Z,4
2016-07-21T03:19:39.384Z,4
2016-07-21T03:20:38.687Z,4
2016-07-21T03:21:39.395Z,4
2016-07-21T03:22:40.762Z,4
2016-07-21T03:23:39.414Z,4
2016-07-21T03:24:38.718Z,4
2016-07-21T03:25:39.432Z,8
2016-07-21T03:26:39.438Z,4
2016-07-21T03:27:39.448Z,8
2016-07-21T03:28:39.452Z,8
2016-07-21T03:29:38.046Z,8
2016-07-21T03:30:38.061Z,12
2016-07-21T03:31:39.020Z,12
2016-07-21T03:32:40.250Z,12
2016-07-21T03:33:40.820Z,16
2016-07-21T03:34:38.088Z,16
2016-07-21T03:35:38.098Z,12
2016-07-21T03:36:38.817Z,16
2016-07-21T03:37:39.524Z,16
2016-07-21T03:38:38.829Z,20
2016-07-21T03:39:38.832Z,20
2016-07-21T03:40:40.262Z,24
2016-07-21T03:41:39.556Z,24
2016-07-21T03:42:41.236Z,24
2016-07-21T03:43:39.570Z,28
2016-07-21T03:44:38.165Z,28
2016-07-21T03:45:39.593Z,32
2016-07-21T03:46:40.307Z,32
2016-07-21T03:47:39.606Z,36
2016-07-21T03:48:39.613Z,40
2016-07-21T03:49:39.621Z,40
2016-07-21T03:50:38.925Z,44
2016-07-21T03:51:38.938Z,44
2016-07-21T03:52:39.641Z,48
2016-07-21T03:53:39.744Z,56
2016-07-21T03:54:39.661Z,60
2016-07-21T03:55:39.673Z,64
2016-07-21T03:56:39.676Z,68
2016-07-21T03:57:40.391Z,72
2016-07-21T03:58:39.689Z,76
2016-07-21T03:59:40.407Z,80
2016-07-21T04:00:40.432Z,84
2016-07-21T04:01:39.717Z,88
2016-07-21T04:02:39.797Z,96
2016-07-21T04:03:40.445Z,96
2016-07-21T04:04:40.233Z,104
2016-07-21T04:05:39.050Z,112
2016-07-21T04:06:39.804Z,116
2016-07-21T04:07:40.467Z,124
2016-07-21T04:08:39.075Z,132
2016-07-21T04:09:39.779Z,136
2016-07-21T04:10:39.079Z,140
2016-07-21T04:11:40.512Z,148
2016-07-21T04:12:39.860Z,152
2016-07-21T04:13:38.402Z,160
2016-07-21T04:14:39.822Z,164
2016-07-21T04:15:41.006Z,172
2016-07-21T04:16:39.837Z,176
2016-07-21T04:17:40.593Z,180
2016-07-21T04:18:39.864Z,188
2016-07-21T04:19:39.863Z,192
2016-07-21T04:20:39.866Z,200
2016-07-21T04:21:39.221Z,208
2016-07-21T04:22:39.177Z,212
2016-07-21T04:23:39.890Z,220
2016-07-21T04:24:39.196Z,228
2016-07-21T04:25:39.204Z,236
2016-07-21T04:26:39.915Z,248
2016-07-21T04:27:39.222Z,256
2016-07-21T04:28:41.544Z,272
2016-07-21T04:29:39.952Z,280
2016-07-21T04:30:39.954Z,292
2016-07-21T04:31:39.957Z,300
2016-07-21T04:32:39.966Z,300
2016-07-21T04:33:39.977Z,308
2016-07-21T04:34:39.279Z,316
2016-07-21T04:35:39.988Z,320
2016-07-21T04:36:39.291Z,324
2016-07-21T04:37:40.008Z,332
2016-07-21T04:38:39.306Z,340
2016-07-21T04:39:40.752Z,348
2016-07-21T04:40:39.323Z,356
2016-07-21T04:41:39.341Z,364
2016-07-21T04:42:38.635Z,380
2016-07-21T04:43:40.760Z,384
2016-07-21T04:44:40.066Z,392
2016-07-21T04:45:39.363Z,396
2016-07-21T04:46:39.376Z,400
2016-07-21T04:47:40.796Z,408
2016-07-21T04:48:40.800Z,420
2016-07-21T04:49:40.813Z,440
2016-07-21T04:50:41.134Z,464
2016-07-21T04:51:40.119Z,480
2016-07-21T04:52:39.428Z,492
2016-07-21T04:53:39.426Z,504
2016-07-21T04:54:39.440Z,512
2016-07-21T04:55:40.156Z,524
2016-07-21T04:56:39.463Z,540
2016-07-21T04:57:40.182Z,564
2016-07-21T04:58:39.470Z,588
2016-07-21T04:59:40.288Z,612
2016-07-21T05:00:40.196Z,636
2016-07-21T05:01:41.190Z,656
2016-07-21T05:02:38.791Z,692
2016-07-21T05:03:40.223Z,744
2016-07-21T05:04:40.223Z,796
2016-07-21T05:05:39.530Z,892
2016-07-21T05:06:40.240Z,972
2016-07-21T05:07:40.248Z,1092
2016-07-21T05:08:40.257Z,1232
2016-07-21T05:09:40.263Z,1532
2016-07-21T05:10:40.671Z,1624
2016-07-21T05:11:40.280Z,1476
2016-07-21T05:12:41.791Z,1428
2016-07-21T05:13:40.291Z,1516
2016-07-21T05:14:40.308Z,1384
2016-07-21T05:15:41.167Z,1440
2016-07-21T05:16:40.371Z,1456
2016-07-21T05:17:40.330Z,1684
2016-07-21T05:18:39.628Z,1856
2016-07-21T05:19:38.930Z,1832
2016-07-21T05:20:39.648Z,2056
2016-07-21T05:21:40.659Z,2312
2016-07-21T05:22:39.665Z,2508
2016-07-21T05:23:41.137Z,2720
2016-07-21T05:24:39.693Z,2668
2016-07-21T05:25:41.108Z,2424
2016-07-21T05:26:40.403Z,2316
2016-07-21T05:27:40.414Z,1980
2016-07-21T05:28:39.713Z,1524
2016-07-21T05:29:41.134Z,1168
2016-07-21T05:30:41.146Z,1180
2016-07-21T05:31:41.151Z,1336
2016-07-21T05:32:39.751Z,1516
2016-07-21T05:33:39.755Z,1336
2016-07-21T05:34:41.484Z,1592
2016-07-21T05:35:40.482Z,1540
2016-07-21T05:36:39.785Z,1528
2016-07-21T05:37:40.500Z,1544
2016-07-21T05:38:41.211Z,1144
2016-07-21T05:39:40.515Z,988
2016-07-21T05:40:41.228Z,908
2016-07-21T05:41:40.532Z,940
2016-07-21T05:42:41.245Z,1028
2016-07-21T05:43:42.227Z,1028
2016-07-21T05:44:39.849Z,1188
2016-07-21T05:45:41.828Z,1332
2016-07-21T05:46:40.571Z,1436
2016-07-21T05:47:39.873Z,1052
2016-07-21T05:48:40.588Z,804
2016-07-21T05:49:39.893Z,536
2016-07-21T05:50:40.618Z,484
2016-07-21T05:51:41.320Z,524
2016-07-21T05:52:40.618Z,644
2016-07-21T05:53:40.630Z,888
2016-07-21T05:54:41.610Z,928
2016-07-21T05:55:41.352Z,932
2016-07-21T05:56:39.241Z,952
2016-07-21T05:57:39.951Z,736
2016-07-21T05:58:39.963Z,676
2016-07-21T05:59:40.680Z,680
2016-07-21T06:00:40.682Z,808
2016-07-21T06:01:40.700Z,1032
2016-07-21T06:02:40.701Z,1316
2016-07-21T06:03:40.904Z,1816
2016-07-21T06:04:40.725Z,2700
2016-07-21T06:05:40.018Z,2312
2016-07-21T06:06:41.438Z,3092
2016-07-21T06:07:41.949Z,3012
2016-07-21T06:08:40.749Z,2700
2016-07-21T06:09:40.756Z,3156
2016-07-21T06:10:41.487Z,4164
2016-07-21T06:11:40.068Z,5108
2016-07-21T06:12:39.370Z,5052
2016-07-21T06:13:40.085Z,5492
2016-07-21T06:14:41.597Z,5144
2016-07-21T06:15:40.815Z,5304
2016-07-21T06:16:42.549Z,4288
2016-07-21T06:17:40.825Z,3808
2016-07-21T06:18:40.837Z,3152
2016-07-21T06:19:40.844Z,2844
2016-07-21T06:20:40.146Z,4612
2016-07-21T06:21:41.571Z,5112
2016-07-21T06:22:41.579Z,5512
2016-07-21T06:23:40.928Z,4700
2016-07-21T06:24:40.237Z,4020
2016-07-21T06:25:41.802Z,5348
2016-07-21T06:26:41.616Z,5792
2016-07-21T06:27:40.808Z,7396
2016-07-21T06:28:40.223Z,8120
2016-07-21T06:29:40.936Z,6228
2016-07-21T06:30:40.238Z,4784
2016-07-21T06:31:40.247Z,3916
2016-07-21T06:32:39.553Z,7668
2016-07-21T06:33:40.974Z,6464
2016-07-21T06:34:40.283Z,6564
2016-07-21T06:35:40.993Z,10396
2016-07-21T06:36:41.899Z,9564
2016-07-21T06:37:41.011Z,14752
2016-07-21T06:38:40.413Z,16160
2016-07-21T06:39:39.621Z,14824
2016-07-21T06:40:41.733Z,15904
2016-07-21T06:41:40.342Z,17248
2016-07-21T06:42:39.647Z,16352
2016-07-21T06:43:41.072Z,15164
2016-07-21T06:44:40.372Z,10612
2016-07-21T06:45:41.092Z,9472
2016-07-21T06:46:41.811Z,12672
2016-07-21T06:47:40.402Z,8140
2016-07-21T06:48:41.828Z,11144
2016-07-21T06:49:40.472Z,18656
2016-07-21T06:50:39.739Z,14928
2016-07-21T06:51:42.507Z,15296
2016-07-21T06:52:40.459Z,14508
2016-07-21T06:53:41.174Z,15156
2016-07-21T06:54:41.181Z,13472
2016-07-21T06:55:41.198Z,8852
2016-07-21T06:56:41.909Z,6372
2016-07-21T06:57:41.219Z,8720
2016-07-21T06:58:41.223Z,9676
2016-07-21T06:59:40.525Z,21856
2016-07-21T07:00:42.007Z,18080
2016-07-21T07:01:41.257Z,19360
2016-07-21T07:02:41.271Z,18848
2016-07-21T07:03:39.877Z,18592
2016-07-21T07:04:40.584Z,22464
2016-07-21T07:05:42.009Z,23040
2016-07-21T07:06:42.018Z,21600
2016-07-21T07:07:41.317Z,21248
2016-07-21T07:08:42.042Z,21280
2016-07-21T07:09:40.633Z,22688
2016-07-21T07:10:41.358Z,24000
2016-07-21T07:11:42.933Z,19840
2016-07-21T07:12:40.674Z,18816
2016-07-21T07:13:41.448Z,15680
2016-07-21T07:14:41.398Z,11256
2016-07-21T07:15:40.713Z,9560
2016-07-21T07:16:41.424Z,10632
2016-07-21T07:17:40.726Z,8744
2016-07-21T07:18:42.157Z,13976
2016-07-21T07:19:40.748Z,16672
2016-07-21T07:20:42.172Z,22016
2016-07-21T07:21:41.482Z,24928
2016-07-21T07:22:40.928Z,21312
2016-07-21T07:23:41.506Z,14340
2016-07-21T07:24:41.516Z,10540
2016-07-21T07:25:40.817Z,16160
2016-07-21T07:26:42.939Z,28768
2016-07-21T07:27:41.545Z,27808
2016-07-21T07:28:42.318Z,22112
2016-07-21T07:29:40.867Z,31808
2016-07-21T07:30:42.294Z,32000
2016-07-21T07:31:40.178Z,28960
2016-07-21T07:32:41.601Z,32096
2016-07-21T07:33:42.326Z,31456
2016-07-21T07:34:41.628Z,30112
2016-07-21T07:35:40.940Z,32448
2016-07-21T07:36:40.945Z,34272
2016-07-21T07:37:42.274Z,32608
2016-07-21T07:38:41.675Z,30528
2016-07-21T07:39:41.689Z,30976
2016-07-21T07:40:41.700Z,31200
2016-07-21T07:41:42.418Z,30048
2016-07-21T07:42:41.730Z,31104
2016-07-21T07:43:41.031Z,21088
2016-07-21T07:44:40.337Z,9416
2016-07-21T07:45:41.068Z,4192
2016-07-21T07:46:43.195Z,3856
2016-07-21T07:47:41.085Z,3600
2016-07-21T07:48:41.692Z,3352
2016-07-21T07:49:41.823Z,3204
2016-07-21T07:50:43.027Z,3080
2016-07-21T07:51:41.843Z,2960
2016-07-21T07:52:42.549Z,2792
2016-07-21T07:53:40.436Z,2616
2016-07-21T07:54:42.576Z,2304
2016-07-21T07:55:41.874Z,2280
2016-07-21T07:56:41.883Z,2332
2016-07-21T07:57:41.207Z,2272
2016-07-21T07:58:41.204Z,2404
2016-07-21T07:59:41.914Z,2588
2016-07-21T08:00:41.927Z,2612
2016-07-21T08:01:42.355Z,2652
2016-07-21T08:02:41.249Z,2648
2016-07-21T08:03:42.662Z,2656
2016-07-21T08:04:41.962Z,2640
2016-07-21T08:05:41.980Z,2620
2016-07-21T08:06:41.982Z,2560
2016-07-21T08:07:42.702Z,2484
2016-07-21T08:08:43.518Z,2432
2016-07-21T08:09:42.011Z,2404
2016-07-21T08:10:42.038Z,2324
2016-07-21T08:11:42.031Z,2132
2016-07-21T08:12:42.592Z,2156
2016-07-21T08:13:41.353Z,2324
2016-07-21T08:14:41.357Z,2568
2016-07-21T08:15:41.365Z,2552
2016-07-21T08:16:41.380Z,2520
2016-07-21T08:17:41.387Z,2572
2016-07-21T08:18:42.099Z,2580
2016-07-21T08:19:42.110Z,2604
2016-07-21T08:20:42.121Z,2596
2016-07-21T08:21:43.511Z,2616
2016-07-21T08:22:41.435Z,2588
2016-07-21T08:23:42.796Z,2540
2016-07-21T08:24:40.751Z,2536
2016-07-21T08:25:42.166Z,2512
2016-07-21T08:26:41.571Z,2492
2016-07-21T08:27:42.191Z,2468
2016-07-21T08:28:42.204Z,2436
2016-07-21T08:29:42.910Z,2388
2016-07-21T08:30:41.570Z,2352
2016-07-21T08:31:41.523Z,2312
2016-07-21T08:32:41.540Z,2280
2016-07-21T08:33:42.235Z,2196
2016-07-21T08:34:42.652Z,2140
2016-07-21T08:35:40.849Z,2088
2016-07-21T08:36:41.559Z,1976
2016-07-21T08:37:41.574Z,1876
2016-07-21T08:38:41.216Z,1788
2016-07-21T08:39:41.594Z,1816
2016-07-21T08:40:41.599Z,1908
2016-07-21T08:41:42.317Z,1992
2016-07-21T08:42:43.034Z,2088
2016-07-21T08:43:43.592Z,2108
2016-07-21T08:44:43.057Z,2060
2016-07-21T08:45:44.201Z,2032
2016-07-21T08:46:42.366Z,2068
2016-07-21T08:47:43.371Z,2128
2016-07-21T08:48:41.672Z,2152
2016-07-21T08:49:42.386Z,2136
2016-07-21T08:50:41.700Z,2220
2016-07-21T08:51:41.700Z,2288
2016-07-21T08:52:42.413Z,2348
2016-07-21T08:53:43.147Z,2396
2016-07-21T08:54:43.692Z,2472
2016-07-21T08:55:42.445Z,2616
2016-07-21T08:56:41.437Z,2628
2016-07-21T08:57:42.465Z,2664
2016-07-21T08:58:42.865Z,2676
2016-07-21T08:59:42.483Z,2680
2016-07-21T09:00:42.492Z,2700
2016-07-21T09:01:41.795Z,2736
2016-07-21T09:02:43.244Z,2696
2016-07-21T09:03:41.812Z,2584
2016-07-21T09:04:42.539Z,2552
2016-07-21T09:05:41.829Z,2368
2016-07-21T09:06:42.551Z,2408
2016-07-21T09:07:41.142Z,2460
2016-07-21T09:08:42.564Z,2332
2016-07-21T09:09:42.108Z,2396
2016-07-21T09:10:42.582Z,2352
2016-07-21T09:11:42.599Z,2420
2016-07-21T09:12:42.602Z,2428
2016-07-21T09:13:41.192Z,2488
2016-07-21T09:14:41.924Z,2504
2016-07-21T09:15:41.213Z,2528
2016-07-21T09:16:42.642Z,2516
2016-07-21T09:17:41.943Z,2528
2016-07-21T09:18:44.374Z,2512
2016-07-21T09:19:41.960Z,2512
2016-07-21T09:20:42.068Z,2508
2016-07-21T09:21:41.979Z,2488
2016-07-21T09:22:42.034Z,2416
2016-07-21T09:23:41.994Z,2368
2016-07-21T09:24:42.002Z,2396
2016-07-21T09:25:41.306Z,2408
2016-07-21T09:26:42.731Z,2416
2016-07-21T09:27:42.777Z,2412
2016-07-21T09:28:42.041Z,2408
2016-07-21T09:29:43.104Z,2436
2016-07-21T09:30:42.762Z,2392
2016-07-21T09:31:42.124Z,2392
2016-07-21T09:32:42.782Z,2400
2016-07-21T09:33:43.695Z,2376
2016-07-21T09:34:43.507Z,2316
2016-07-21T09:35:43.518Z,2348
2016-07-21T09:36:42.116Z,2364
2016-07-21T09:37:42.829Z,2372
2016-07-21T09:38:42.835Z,2372
2016-07-21T09:39:42.141Z,2264
2016-07-21T09:40:44.112Z,2252
2016-07-21T09:41:43.575Z,2052
2016-07-21T09:42:43.844Z,1728
2016-07-21T09:43:41.473Z,1860
2016-07-21T09:44:43.132Z,1984
2016-07-21T09:45:43.115Z,1992
2016-07-21T09:46:42.209Z,2040
2016-07-21T09:47:42.211Z,2060
2016-07-21T09:48:42.929Z,2080
2016-07-21T09:49:42.940Z,2020
2016-07-21T09:50:42.240Z,1896
2016-07-21T09:51:42.956Z,1776
2016-07-21T09:52:43.685Z,1788
2016-07-21T09:53:44.528Z,1996
2016-07-21T09:54:42.983Z,2104
2016-07-21T09:55:42.992Z,2204
2016-07-21T09:56:41.590Z,2252
2016-07-21T09:57:42.303Z,2284
2016-07-21T09:58:42.313Z,2312
2016-07-21T09:59:43.027Z,2336
2016-07-21T10:00:42.327Z,2348
2016-07-21T10:01:43.046Z,2348
2016-07-21T10:02:43.057Z,2348
2016-07-21T10:03:42.427Z,2300
2016-07-21T10:04:44.078Z,2300
2016-07-21T10:05:43.077Z,2320
2016-07-21T10:06:43.098Z,2360
2016-07-21T10:07:43.814Z,2388
2016-07-21T10:08:43.824Z,2352
2016-07-21T10:09:42.407Z,2336
2016-07-21T10:10:41.715Z,2316
2016-07-21T10:11:42.428Z,2288
2016-07-21T10:12:43.142Z,2272
2016-07-21T10:13:43.157Z,2248
2016-07-21T10:14:42.457Z,2232
2016-07-21T10:15:44.178Z,2204
2016-07-21T10:16:41.766Z,2180
2016-07-21T10:17:44.715Z,2132
2016-07-21T10:18:43.204Z,2132
2016-07-21T10:19:43.861Z,2104
2016-07-21T10:20:43.926Z,2088
2016-07-21T10:21:43.231Z,2068
2016-07-21T10:22:43.287Z,2056
2016-07-21T10:23:41.833Z,2032
2016-07-21T10:24:43.961Z,2052
2016-07-21T10:25:43.276Z,2020
2016-07-21T10:26:44.190Z,2012
2016-07-21T10:27:42.638Z,2012
2016-07-21T10:28:44.256Z,1988
2016-07-21T10:29:41.886Z,1992
2016-07-21T10:30:43.862Z,1964
2016-07-21T10:31:44.078Z,1952
2016-07-21T10:32:43.325Z,1936
2016-07-21T10:33:42.633Z,1936
2016-07-21T10:34:42.642Z,1904
2016-07-21T10:35:42.648Z,1896
2016-07-21T10:36:43.366Z,1892
2016-07-21T10:37:42.663Z,1864
2016-07-21T10:38:43.383Z,1872
2016-07-21T10:39:43.389Z,1852
2016-07-21T10:40:43.453Z,1852
2016-07-21T10:41:45.092Z,1832
2016-07-21T10:42:43.418Z,1828
2016-07-21T10:43:42.722Z,1832
2016-07-21T10:44:42.810Z,1840
2016-07-21T10:45:42.738Z,1828
2016-07-21T10:46:42.046Z,1812
2016-07-21T10:47:43.463Z,1792
2016-07-21T10:48:43.477Z,1768
2016-07-21T10:49:43.486Z,1764
2016-07-21T10:50:44.394Z,1760
2016-07-21T10:51:43.505Z,1748
2016-07-21T10:52:44.362Z,1736
2016-07-21T10:53:43.522Z,1720
2016-07-21T10:54:42.825Z,1720
2016-07-21T10:55:44.248Z,1720
2016-07-21T10:56:42.849Z,1704
2016-07-21T10:57:42.849Z,1692
2016-07-21T10:58:44.286Z,1680
2016-07-21T10:59:44.634Z,1688
2016-07-21T11:00:43.587Z,1696
2016-07-21T11:01:44.042Z,1696
2016-07-21T11:02:44.309Z,1688
2016-07-21T11:03:43.964Z,1688
2016-07-21T11:04:42.210Z,1664
2016-07-21T11:05:44.516Z,1644
2016-07-21T11:06:42.934Z,1648
2016-07-21T11:07:43.652Z,1644
2016-07-21T11:08:43.659Z,1640
2016-07-21T11:09:42.251Z,1640
2016-07-21T11:10:42.267Z,1636
2016-07-21T11:11:43.687Z,1620
2016-07-21T11:12:44.902Z,1640
2016-07-21T11:13:44.413Z,1640
2016-07-21T11:14:43.716Z,1620
2016-07-21T11:15:43.725Z,1632
2016-07-21T11:16:44.907Z,1628
2016-07-21T11:17:43.746Z,1624
2016-07-21T11:18:43.756Z,1628
2016-07-21T11:19:44.515Z,1628
2016-07-21T11:20:42.573Z,1624
2016-07-21T11:21:43.120Z,1612
2016-07-21T11:22:42.423Z,1600
2016-07-21T11:23:44.503Z,1572
2016-07-21T11:24:43.128Z,1528
2016-07-21T11:25:43.830Z,1536
2016-07-21T11:26:43.845Z,1552
2016-07-21T11:27:45.259Z,1880
2016-07-21T11:28:44.570Z,1884
2016-07-21T11:29:43.848Z,1896
2016-07-21T11:30:44.912Z,1920
2016-07-21T11:31:43.162Z,1560
2016-07-21T11:32:43.926Z,1540
2016-07-21T11:33:43.174Z,1548
2016-07-21T11:34:43.895Z,1544
2016-07-21T11:35:44.616Z,1520
2016-07-21T11:36:43.655Z,1528
2016-07-21T11:37:43.215Z,1464
2016-07-21T11:38:45.035Z,1472
2016-07-21T11:39:42.895Z,1480
2016-07-21T11:40:43.236Z,1472
2016-07-21T11:41:42.547Z,1484
2016-07-21T11:42:43.368Z,1476
2016-07-21T11:43:44.687Z,1476
2016-07-21T11:44:43.278Z,1496
2016-07-21T11:45:43.354Z,1508
2016-07-21T11:46:42.598Z,1488
2016-07-21T11:47:45.805Z,1540
2016-07-21T11:48:43.311Z,1068
2016-07-21T11:49:44.966Z,968
2016-07-21T11:50:44.041Z,936
2016-07-21T11:51:43.503Z,1396
2016-07-21T11:52:44.048Z,952
2016-07-21T11:53:43.354Z,1448
2016-07-21T11:54:43.361Z,1520
2016-07-21T11:55:44.076Z,1524
2016-07-21T11:56:42.668Z,1520
2016-07-21T11:57:43.383Z,1480
2016-07-21T11:58:45.067Z,1504
2016-07-21T11:59:44.106Z,1504
2016-07-21T12:00:44.409Z,1532
2016-07-21T12:01:43.415Z,1500
2016-07-21T12:02:45.787Z,1484
2016-07-21T12:03:43.443Z,1464
2016-07-21T12:04:44.150Z,1492
2016-07-21T12:05:44.858Z,1504
2016-07-21T12:06:44.165Z,1484
2016-07-21T12:07:44.214Z,1496
2016-07-21T12:08:44.453Z,1508
2016-07-21T12:09:44.199Z,1480
2016-07-21T12:10:44.201Z,1508
2016-07-21T12:11:44.004Z,1524
2016-07-21T12:12:44.925Z,1564
2016-07-21T12:13:45.305Z,1576
2016-07-21T12:14:43.538Z,1556
2016-07-21T12:15:43.541Z,1572
2016-07-21T12:16:43.548Z,1572
2016-07-21T12:17:44.264Z,1592
2016-07-21T12:18:44.273Z,1640
2016-07-21T12:19:44.329Z,1640
2016-07-21T12:20:44.997Z,1648
2016-07-21T12:21:43.690Z,1648
2016-07-21T12:22:44.309Z,1668
2016-07-21T12:23:44.317Z,1692
2016-07-21T12:24:42.965Z,1672
2016-07-21T12:25:44.900Z,1628
2016-07-21T12:26:43.637Z,1568
2016-07-21T12:27:43.648Z,1520
2016-07-21T12:28:43.653Z,1436
2016-07-21T12:29:44.369Z,1408
2016-07-21T12:30:44.378Z,1420
2016-07-21T12:31:44.384Z,1424
2016-07-21T12:32:43.688Z,1412
2016-07-21T12:33:45.108Z,1324
2016-07-21T12:34:44.411Z,1212
2016-07-21T12:35:46.251Z,1272
2016-07-21T12:36:43.735Z,1328
2016-07-21T12:37:44.082Z,1600
2016-07-21T12:38:43.034Z,1432
2016-07-21T12:39:43.749Z,1492
2016-07-21T12:40:44.461Z,1544
2016-07-21T12:41:45.181Z,1308
2016-07-21T12:42:44.485Z,1232
2016-07-21T12:43:45.197Z,1424
2016-07-21T12:44:44.505Z,1344
2016-07-21T12:45:44.515Z,1284
2016-07-21T12:46:45.518Z,1092
2016-07-21T12:47:44.528Z,1000
2016-07-21T12:48:44.641Z,984
2016-07-21T12:49:44.546Z,1024
2016-07-21T12:50:43.145Z,1008
2016-07-21T12:51:44.545Z,1108
2016-07-21T12:52:44.579Z,976
2016-07-21T12:53:45.300Z,976
2016-07-21T12:54:43.921Z,1000
2016-07-21T12:55:44.655Z,1104
2016-07-21T12:56:44.611Z,1036
2016-07-21T12:57:45.521Z,1012
2016-07-21T12:58:44.624Z,1016
2016-07-21T12:59:43.983Z,1024
2016-07-21T13:00:44.646Z,1000
2016-07-21T13:01:43.949Z,988
2016-07-21T13:02:45.376Z,1024
2016-07-21T13:03:44.673Z,1056
2016-07-21T13:04:44.676Z,1184
2016-07-21T13:05:43.999Z,1232
2016-07-21T13:06:44.699Z,1208
2016-07-21T13:07:43.998Z,1192
2016-07-21T13:08:44.863Z,1108
2016-07-21T13:09:44.728Z,1072
2016-07-21T13:10:44.733Z,1012
2016-07-21T13:11:45.454Z,996
2016-07-21T13:12:44.048Z,968
2016-07-21T13:13:44.760Z,928
2016-07-21T13:14:44.075Z,916
2016-07-21T13:15:44.079Z,916
2016-07-21T13:16:44.982Z,940
2016-07-21T13:17:45.508Z,1004
2016-07-21T13:18:44.813Z,1028
2016-07-21T13:19:45.673Z,1080
2016-07-21T13:20:43.463Z,1080
2016-07-21T13:21:46.359Z,1092
2016-07-21T13:22:44.131Z,1088
2016-07-21T13:23:45.555Z,1168
2016-07-21T13:24:46.101Z,1200
2016-07-21T13:25:45.584Z,1220
2016-07-21T13:26:44.877Z,1200
2016-07-21T13:27:45.592Z,1172
2016-07-21T13:28:45.597Z,1180
2016-07-21T13:29:44.192Z,1204
2016-07-21T13:30:45.621Z,1216
2016-07-21T13:31:44.915Z,1212
2016-07-21T13:32:44.223Z,1248
2016-07-21T13:33:45.649Z,1208
2016-07-21T13:34:44.943Z,1252
2016-07-21T13:35:45.659Z,1276
2016-07-21T13:36:44.307Z,1232
2016-07-21T13:37:45.211Z,1220
2016-07-21T13:38:43.615Z,1144
2016-07-21T13:39:44.986Z,1124
2016-07-21T13:40:44.996Z,1092
2016-07-21T13:41:45.000Z,1140
2016-07-21T13:42:44.310Z,1244